Time;durP1;ratioP1;P1;durP2;ratioP2;P2;SDS_P1;SDS_P2;PMS_P1;PMS_P2;Temp;Humidity;BMP_temperature;BMP_pressure;BME280_temperature;BME280_humidity;BME280_pressure;Samples;Min_cycle;Max_cycle;Signal;HPM_P1;HPM_P2
2022/08/15 00:03:59;;;;;;;7.85;6.22;;;;;19.50;95452.00;;;;8309097;28;20570;-72
2022/08/15 00:08:10;;;;;;;11.10;6.55;;;;;19.40;95451.00;;;;8313966;28;20312;-72
2022/08/15 00:12:34;;;;;;;7.63;6.43;;;;;19.30;95463.00;;;;8310344;28;20235;-72
2022/08/15 00:16:41;;;;;;;9.80;6.70;;;;;19.30;95465.00;;;;8313886;28;20598;-72
2022/08/15 00:20:46;;;;;;;7.70;6.90;;;;;19.20;95461.00;;;;8313286;28;20224;-72
2022/08/15 00:24:54;;;;;;;9.73;7.25;;;;;19.10;95459.00;;;;8314690;28;20225;-72
2022/08/15 00:28:59;;;;;;;11.00;7.95;;;;;18.90;95451.00;;;;8312890;28;20224;-73
2022/08/15 00:33:03;;;;;;;8.40;7.18;;;;;18.80;95459.00;;;;8311188;28;20317;-73
2022/08/15 00:37:26;;;;;;;10.27;7.75;;;;;18.70;95452.00;;;;8307689;28;20270;-74
2022/08/15 00:41:41;;;;;;;8.93;6.97;;;;;18.80;95447.00;;;;8308141;28;20226;-72
2022/08/15 00:45:45;;;;;;;9.32;7.25;;;;;18.80;95448.00;;;;8310743;28;20575;-72
2022/08/15 00:49:58;;;;;;;10.65;8.13;;;;;18.80;95452.00;;;;8310445;28;20244;-73
2022/08/15 00:54:17;;;;;;;10.10;7.97;;;;;18.80;95443.00;;;;8313736;28;20237;-73
2022/08/15 00:58:43;;;;;;;9.65;8.27;;;;;18.80;95443.00;;;;8267307;28;20243;-74
2022/08/15 01:03:02;;;;;;;13.40;8.00;;;;;18.90;95442.00;;;;8296340;28;20568;-74
2022/08/15 01:07:06;;;;;;;9.05;7.57;;;;;19.00;95442.00;;;;8303869;28;20370;-73
2022/08/15 01:11:16;;;;;;;9.20;7.82;;;;;19.00;95439.00;;;;8334375;28;20311;-74
2022/08/15 01:15:22;;;;;;;8.43;7.32;;;;;18.90;95446.00;;;;8327316;28;20344;-73
2022/08/15 01:19:49;;;;;;;7.82;6.93;;;;;18.90;95442.00;;;;8347852;28;20244;-72
2022/08/15 01:24:03;;;;;;;8.90;7.20;;;;;18.90;95440.00;;;;8361241;28;20763;-73
2022/08/15 01:28:21;;;;;;;12.55;8.15;;;;;18.80;95438.00;;;;8352704;28;20228;-73
2022/08/15 01:32:34;;;;;;;9.18;7.78;;;;;18.80;95429.00;;;;8341884;28;20223;-72
2022/08/15 01:36:37;;;;;;;12.70;8.13;;;;;18.80;95423.00;;;;8363976;28;20633;-74
2022/08/15 01:40:51;;;;;;;11.13;8.48;;;;;18.80;95415.00;;;;8343489;28;20225;-73
2022/08/15 01:45:03;;;;;;;10.73;8.43;;;;;18.70;95411.00;;;;8359882;28;20303;-71
2022/08/15 01:49:12;;;;;;;12.00;7.65;;;;;18.70;95412.00;;;;8364609;28;20458;-71
2022/08/15 01:53:25;;;;;;;11.77;8.68;;;;;18.70;95404.00;;;;8360471;28;20224;-72
2022/08/15 01:57:32;;;;;;;10.82;8.13;;;;;18.70;95403.00;;;;8351922;28;20316;-73
2022/08/15 02:01:43;;;;;;;10.13;7.45;;;;;18.70;95410.00;;;;8353580;28;20664;-72
2022/08/15 02:05:56;;;;;;;9.60;7.80;;;;;18.70;95412.00;;;;8351718;28;20582;-73
2022/08/15 02:09:59;;;;;;;13.57;8.35;;;;;18.60;95411.00;;;;8355581;28;20693;-72
2022/08/15 02:14:23;;;;;;;11.60;8.77;;;;;18.60;95398.00;;;;8349323;28;20247;-73
2022/08/15 02:18:42;;;;;;;12.15;8.30;;;;;18.50;95391.00;;;;8348882;28;20581;-73
2022/08/15 02:22:47;;;;;;;12.70;8.82;;;;;18.50;95393.00;;;;8360078;28;20588;-73
2022/08/15 02:26:54;;;;;;;10.70;8.85;;;;;18.60;95393.00;;;;8349912;28;20228;-74
2022/08/15 02:30:57;;;;;;;12.48;8.98;;;;;18.50;95382.00;;;;8357855;28;20224;-73
2022/08/15 02:35:06;;;;;;;11.18;8.48;;;;;18.60;95390.00;;;;8352642;28;20311;-74
2022/08/15 02:39:11;;;;;;;11.15;8.70;;;;;18.60;95385.00;;;;8344626;28;20282;-74
2022/08/15 02:43:17;;;;;;;13.13;9.07;;;;;18.60;95382.00;;;;8356789;28;20267;-73
2022/08/15 02:47:21;;;;;;;13.57;9.70;;;;;18.70;95389.00;;;;8358236;28;20638;-73
2022/08/15 02:51:35;;;;;;;11.05;8.77;;;;;18.70;95395.00;;;;8359565;28;20278;-74
2022/08/15 02:55:49;;;;;;;13.15;8.40;;;;;18.70;95392.00;;;;8342882;28;20307;-74
2022/08/15 02:59:58;;;;;;;12.68;8.40;;;;;18.60;95387.00;;;;8351806;28;20239;-73
2022/08/15 03:04:30;;;;;;;12.52;8.50;;;;;18.60;95385.00;;;;8330338;23;20225;-73
2022/08/15 03:08:37;;;;;;;12.07;9.50;;;;;18.60;95368.00;;;;8344497;28;20232;-73
2022/08/15 03:12:50;;;;;;;13.82;9.88;;;;;18.60;95373.00;;;;8343964;28;20664;-75
2022/08/15 03:16:53;;;;;;;10.65;9.18;;;;;18.70;95377.00;;;;8348955;28;20585;-72
2022/08/15 03:20:58;;;;;;;11.77;9.00;;;;;18.80;95380.00;;;;8335178;28;20239;-72
2022/08/15 03:25:03;;;;;;;14.35;9.35;;;;;18.80;95382.00;;;;8339936;28;20227;-72
2022/08/15 03:29:08;;;;;;;11.73;8.65;;;;;18.70;95392.00;;;;8331732;28;20223;-72
2022/08/15 03:33:18;;;;;;;12.30;8.90;;;;;18.70;95392.00;;;;8348576;28;20693;-71
2022/08/15 03:37:42;;;;;;;14.30;9.43;;;;;18.50;95386.00;;;;8339105;28;20295;-70
2022/08/15 03:42:10;;;;;;;11.27;8.70;;;;;18.50;95394.00;;;;8337364;28;20247;-69
2022/08/15 03:46:22;;;;;;;11.38;8.90;;;;;18.40;95398.00;;;;8346771;28;20228;-70
2022/08/15 03:50:26;;;;;;;11.88;8.32;;;;;18.40;95402.00;;;;8347567;28;20608;-70
2022/08/15 03:54:44;;;;;;;9.43;8.35;;;;;18.30;95400.00;;;;8340926;28;20220;-70
2022/08/15 03:58:54;;;;;;;12.85;8.40;;;;;18.30;95387.00;;;;8340531;28;20279;-70
2022/08/15 04:03:06;;;;;;;11.60;8.48;;;;;18.30;95388.00;;;;8339359;28;20228;-72
2022/08/15 04:07:10;;;;;;;13.52;8.80;;;;;18.50;95388.00;;;;8347025;28;20227;-72
2022/08/15 04:11:29;;;;;;;11.45;9.02;;;;;18.50;95394.00;;;;8346275;28;20224;-71
2022/08/15 04:15:41;;;;;;;11.90;9.40;;;;;18.50;95389.00;;;;8335914;28;20312;-71
2022/08/15 04:19:45;;;;;;;12.25;9.23;;;;;18.50;95404.00;;;;8346665;28;20232;-72
2022/08/15 04:23:51;;;;;;;13.80;9.65;;;;;18.50;95402.00;;;;8314137;28;20685;-73
2022/08/15 04:27:59;;;;;;;11.68;9.75;;;;;18.60;95401.00;;;;8317384;28;20324;-71
2022/08/15 04:32:14;;;;;;;11.95;8.93;;;;;18.70;95409.00;;;;8324820;28;20234;-72
2022/08/15 04:36:31;;;;;;;13.45;9.45;;;;;19.00;95416.00;;;;8343166;28;20565;-71
2022/08/15 04:40:37;;;;;;;13.80;9.55;;;;;19.20;95412.00;;;;8342706;28;20221;-72
2022/08/15 04:45:00;;;;;;;14.07;10.23;;;;;19.50;95421.00;;;;8344641;28;20269;-71
2022/08/15 04:49:10;;;;;;;16.90;9.88;;;;;19.80;95425.00;;;;8343035;28;20227;-71
2022/08/15 04:53:14;;;;;;;14.15;10.07;;;;;20.10;95432.00;;;;8347599;28;20315;-72
2022/08/15 04:57:22;;;;;;;10.25;8.38;;;;;20.40;95429.00;;;;8350848;28;20236;-70
2022/08/15 05:01:25;;;;;;;15.80;9.88;;;;;20.50;95432.00;;;;8351081;28;20232;-72
2022/08/15 05:05:53;;;;;;;13.40;9.82;;;;;20.80;95437.00;;;;8351175;28;20297;-71
2022/08/15 05:09:59;;;;;;;13.05;9.82;;;;;20.90;95442.00;;;;8342327;28;20230;-71
2022/08/15 05:14:13;;;;;;;11.82;9.27;;;;;21.00;95453.00;;;;8352160;28;20220;-72
2022/08/15 05:18:39;;;;;;;11.90;9.23;;;;;21.10;95468.00;;;;8348655;28;20770;-70
2022/08/15 05:22:59;;;;;;;12.52;9.68;;;;;21.10;95452.00;;;;8348751;28;20232;-72
2022/08/15 05:27:05;;;;;;;12.45;8.90;;;;;21.20;95460.00;;;;8350272;28;20224;-72
2022/08/15 05:31:12;;;;;;;13.40;9.80;;;;;21.30;95459.00;;;;8349420;28;20248;-71
2022/08/15 05:35:16;;;;;;;14.52;9.60;;;;;21.40;95445.00;;;;8350108;28;20286;-72
2022/08/15 05:39:23;;;;;;;11.60;9.43;;;;;21.60;95451.00;;;;8349029;28;20228;-72
2022/08/15 05:43:36;;;;;;;12.23;9.35;;;;;21.80;95463.00;;;;8342725;28;20320;-71
2022/08/15 05:48:04;;;;;;;11.02;9.15;;;;;22.20;95467.00;;;;8347576;28;20246;-72
2022/08/15 05:52:31;;;;;;;12.80;10.00;;;;;22.40;95470.00;;;;8348883;28;20239;-72
2022/08/15 05:57:04;;;;;;;10.50;8.40;;;;;22.70;95474.00;;;;8347238;28;20299;-72
2022/08/15 06:01:15;;;;;;;10.65;8.85;;;;;23.20;95471.00;;;;8350240;28;20299;-72
2022/08/15 06:05:27;;;;;;;12.80;9.50;;;;;23.60;95475.00;;;;8337365;28;20232;-72
2022/08/15 06:09:43;;;;;;;10.93;8.13;;;;;24.20;95472.00;;;;8348443;28;20224;-73
2022/08/15 06:13:55;;;;;;;10.25;7.85;;;;;24.70;95467.00;;;;8344584;28;20236;-76
2022/08/15 06:18:05;;;;;;;10.57;7.07;;;;;25.30;95473.00;;;;8345061;28;20229;-75
2022/08/15 06:22:42;;;;;;;7.47;5.80;;;;;25.50;95470.00;;;;8346324;28;20660;-73
2022/08/15 06:26:55;;;;;;;7.20;5.63;;;;;25.60;95479.00;;;;8347769;28;20220;-72
2022/08/15 06:31:08;;;;;;;8.93;6.43;;;;;25.60;95477.00;;;;8346357;28;20307;-72
2022/08/15 06:35:20;;;;;;;6.63;5.97;;;;;25.70;95474.00;;;;8340596;28;20601;-72
2022/08/15 06:39:37;;;;;;;6.80;6.05;;;;;25.90;95470.00;;;;8346223;28;20694;-72
2022/08/15 06:43:42;;;;;;;11.07;5.60;;;;;26.10;95473.00;;;;8345420;28;20225;-71
2022/08/15 06:47:48;;;;;;;8.57;5.07;;;;;26.20;95481.00;;;;8347372;28;20684;-71
2022/08/15 06:51:57;;;;;;;5.57;4.65;;;;;26.30;95483.00;;;;8346199;28;20228;-71
2022/08/15 06:56:20;;;;;;;5.53;4.57;;;;;26.20;95481.00;;;;8336979;28;20244;-71
2022/08/15 07:00:38;;;;;;;4.97;4.30;;;;;26.10;95488.00;;;;8336919;28;20716;-71
2022/08/15 07:05:02;;;;;;;6.18;4.13;;;;;26.10;95492.00;;;;8345311;28;20232;-70
2022/08/15 07:09:23;;;;;;;5.85;3.97;;;;;26.20;95491.00;;;;8341792;28;20229;-69
2022/08/15 07:13:33;;;;;;;8.85;4.20;;;;;26.30;95489.00;;;;8344661;28;20243;-71
2022/08/15 07:17:52;;;;;;;5.93;4.40;;;;;26.30;95489.00;;;;8339841;28;20584;-68
2022/08/15 07:22:02;;;;;;;8.60;4.45;;;;;26.20;95501.00;;;;8344131;28;20235;-71
2022/08/15 07:26:11;;;;;;;10.90;4.57;;;;;26.10;95501.00;;;;8338778;28;20234;-70
2022/08/15 07:30:19;;;;;;;6.60;4.57;;;;;25.90;95508.00;;;;8336024;28;20233;-71
2022/08/15 07:34:33;;;;;;;7.38;4.45;;;;;25.80;95512.00;;;;8334355;28;20232;-71
2022/08/15 07:38:38;;;;;;;6.28;4.20;;;;;25.80;95516.00;;;;8342460;28;20440;-70
2022/08/15 07:42:46;;;;;;;7.18;4.00;;;;;25.80;95519.00;;;;8334882;28;20244;-68
2022/08/15 07:47:13;;;;;;;6.47;4.57;;;;;25.90;95520.00;;;;8344795;28;20224;-68
2022/08/15 07:51:24;;;;;;;7.53;3.95;;;;;26.00;95523.00;;;;8339972;28;20224;-69
2022/08/15 07:55:28;;;;;;;4.43;3.92;;;;;26.20;95526.00;;;;8343091;28;20251;-70
2022/08/15 08:00:19;;;;;;;9.10;4.25;;;;;26.30;95525.00;;;;8336310;28;20289;-71
2022/08/15 08:04:43;;;;;;;6.38;3.67;;;;;26.40;95520.00;;;;8337185;28;20305;-73
2022/08/15 08:08:59;;;;;;;7.65;4.40;;;;;26.30;95530.00;;;;8337224;28;20220;-72
2022/08/15 08:13:34;;;;;;;5.55;4.53;;;;;26.20;95532.00;;;;8340868;28;20246;-71
2022/08/15 08:17:46;;;;;;;5.07;4.00;;;;;26.30;95534.00;;;;8342554;28;20251;-72
2022/08/15 08:22:03;;;;;;;4.20;3.90;;;;;26.10;95529.00;;;;8344997;28;20788;-72
2022/08/15 08:26:23;;;;;;;8.15;4.35;;;;;26.00;95530.00;;;;8344570;28;20255;-72
2022/08/15 08:30:40;;;;;;;7.38;4.45;;;;;25.80;95534.00;;;;8345885;28;20259;-71
2022/08/15 08:34:56;;;;;;;7.63;4.22;;;;;25.60;95541.00;;;;8349541;28;20239;-72
2022/08/15 08:39:24;;;;;;;6.63;4.40;;;;;25.60;95537.00;;;;8348985;28;20636;-72
2022/08/15 08:43:43;;;;;;;9.38;4.63;;;;;25.60;95532.00;;;;8348654;28;20240;-72
2022/08/15 08:48:05;;;;;;;4.63;4.03;;;;;25.70;95535.00;;;;8347442;28;20270;-70
2022/08/15 08:52:17;;;;;;;6.15;4.68;;;;;25.80;95538.00;;;;8346538;28;21128;-71
2022/08/15 08:56:34;;;;;;;8.13;4.85;;;;;25.80;95534.00;;;;8351439;28;20235;-72
2022/08/15 09:00:42;;;;;;;4.28;3.88;;;;;25.80;95532.00;;;;8346921;28;20225;-72
2022/08/15 09:04:55;;;;;;;9.07;4.70;;;;;25.80;95533.00;;;;8346187;28;20314;-71
2022/08/15 09:09:04;;;;;;;6.97;4.80;;;;;25.90;95538.00;;;;8348731;28;20239;-71
2022/08/15 09:17:42;;;;;;;6.78;4.78;;;;;25.80;95534.00;;;;8347824;28;20223;-71
2022/08/15 09:22:05;;;;;;;7.38;4.57;;;;;26.10;95531.00;;;;8343400;28;20233;-71
2022/08/15 09:26:15;;;;;;;6.03;4.13;;;;;26.50;95528.00;;;;8343987;28;20699;-71
2022/08/15 09:30:23;;;;;;;5.32;4.13;;;;;26.90;95541.00;;;;8348004;28;20235;-71
2022/08/15 09:35:07;;;;;;;4.68;3.92;;;;;27.50;95538.00;;;;8335871;28;20232;-70
2022/08/15 09:39:36;;;;;;;5.80;4.63;;;;;27.90;95542.00;;;;8340559;28;20235;-71
2022/08/15 09:44:10;;;;;;;6.10;4.03;;;;;28.40;95541.00;;;;8334764;28;20248;-70
2022/08/15 09:48:51;;;;;;;6.57;4.10;;;;;28.50;95540.00;;;;8339272;28;20250;-70
2022/08/15 09:53:06;;;;;;;9.23;4.28;;;;;28.60;95541.00;;;;8346537;28;20221;-70
2022/08/15 09:57:36;;;;;;;5.78;3.85;;;;;28.90;95539.00;;;;8343060;28;20866;-69
2022/08/15 10:01:58;;;;;;;9.73;4.18;;;;;29.10;95541.00;;;;8343421;28;20240;-69
2022/08/15 10:06:04;;;;;;;4.22;3.63;;;;;29.70;95537.00;;;;8344736;28;20689;-69
2022/08/15 10:10:52;;;;;;;5.90;3.78;;;;;31.10;95536.00;;;;8344757;28;20225;-71
2022/08/15 10:15:04;;;;;;;5.72;3.70;;;;;32.20;95527.00;;;;8344914;28;20307;-70
2022/08/15 10:19:27;;;;;;;7.35;3.88;;;;;32.40;95526.00;;;;8346732;28;20331;-70
2022/08/15 10:23:45;;;;;;;8.77;3.95;;;;;32.70;95519.00;;;;8348025;28;20232;-70
2022/08/15 10:28:05;;;;;;;7.80;3.70;;;;;33.40;95517.00;;;;8345262;28;20585;-70
2022/08/15 10:32:41;;;;;;;5.63;3.33;;;;;33.30;95519.00;;;;8340497;28;20233;-70
2022/08/15 10:37:09;;;;;;;4.97;3.22;;;;;34.40;95510.00;;;;8346846;28;20688;-70
2022/08/15 10:41:26;;;;;;;4.68;2.85;;;;;34.50;95516.00;;;;8345132;28;20235;-69
2022/08/15 10:45:41;;;;;;;3.67;3.20;;;;;34.50;95511.00;;;;8333257;28;22072;-69
2022/08/15 10:50:02;;;;;;;3.55;3.25;;;;;34.20;95516.00;;;;8338958;28;20228;-69
2022/08/15 10:54:22;;;;;;;5.32;3.10;;;;;34.20;95515.00;;;;8327397;28;20262;-70
2022/08/15 10:58:38;;;;;;;3.88;2.67;;;;;34.10;95507.00;;;;8341839;28;20626;-70
2022/08/15 11:02:48;;;;;;;2.90;2.70;;;;;33.70;95512.00;;;;8336454;28;20231;-69
2022/08/15 11:07:22;;;;;;;3.85;2.47;;;;;34.00;95516.00;;;;8343309;28;20800;-70
2022/08/15 11:11:32;;;;;;;2.97;2.78;;;;;34.30;95520.00;;;;8345651;28;20244;-70
2022/08/15 11:15:54;;;;;;;2.75;2.55;;;;;34.70;95515.00;;;;8335447;28;20585;-72
2022/08/15 11:20:03;;;;;;;2.72;2.40;;;;;34.30;95512.00;;;;8345675;28;20311;-70
2022/08/15 11:24:26;;;;;;;2.33;2.10;;;;;35.00;95508.00;;;;8342232;28;20224;-69
2022/08/15 11:28:30;;;;;;;2.70;2.50;;;;;35.00;95502.00;;;;8344345;28;20591;-68
2022/08/15 11:32:53;;;;;;;4.55;2.20;;;;;34.40;95513.00;;;;8341494;28;20275;-69
2022/08/15 11:37:05;;;;;;;3.25;2.47;;;;;34.30;95498.00;;;;8338693;28;20244;-69
2022/08/15 11:41:22;;;;;;;2.72;2.50;;;;;34.80;95495.00;;;;8341343;28;20250;-69
2022/08/15 11:45:33;;;;;;;3.42;2.13;;;;;34.80;95492.00;;;;8340602;28;20415;-69
2022/08/15 11:49:56;;;;;;;2.65;2.10;;;;;35.10;95490.00;;;;8343615;28;20228;-71
2022/08/15 11:54:08;;;;;;;2.38;1.98;;;;;34.90;95481.00;;;;8343970;28;20274;-69
2022/08/15 11:58:28;;;;;;;2.10;1.95;;;;;34.60;95487.00;;;;8338222;28;20977;-69
2022/08/15 12:02:33;;;;;;;1.95;1.85;;;;;34.40;95482.00;;;;8326570;28;20236;-71
2022/08/15 12:06:38;;;;;;;2.13;1.83;;;;;33.70;95489.00;;;;8337449;28;20770;-69
2022/08/15 12:11:04;;;;;;;3.00;1.85;;;;;33.10;95485.00;;;;8342408;28;20703;-70
2022/08/15 12:15:16;;;;;;;2.15;1.83;;;;;32.20;95479.00;;;;8339030;28;20224;-69
2022/08/15 12:19:30;;;;;;;1.80;1.70;;;;;31.90;95492.00;;;;8330741;28;20326;-69
2022/08/15 12:23:56;;;;;;;2.03;1.90;;;;;31.90;95477.00;;;;8339723;28;20350;-69
2022/08/15 12:28:02;;;;;;;1.70;1.70;;;;;31.90;95475.00;;;;8339708;28;20634;-68
2022/08/15 12:32:28;;;;;;;1.70;1.60;;;;;31.60;95473.00;;;;8339117;28;20319;-68
2022/08/15 12:36:40;;;;;;;2.45;1.63;;;;;31.50;95461.00;;;;8326688;28;20319;-70
2022/08/15 12:41:03;;;;;;;2.25;1.90;;;;;31.40;95461.00;;;;8321331;28;20327;-70
2022/08/15 12:45:27;;;;;;;2.15;1.80;;;;;31.50;95450.00;;;;8339064;28;20232;-71
2022/08/15 12:49:43;;;;;;;1.88;1.70;;;;;31.70;95454.00;;;;8339841;28;20224;-71
2022/08/15 12:53:50;;;;;;;1.95;1.85;;;;;31.80;95452.00;;;;8344958;28;20236;-68
2022/08/15 12:57:55;;;;;;;2.08;1.92;;;;;31.80;95448.00;;;;8342288;28;20735;-68
2022/08/15 13:02:00;;;;;;;4.68;1.90;;;;;31.90;95447.00;;;;8341131;28;20229;-69
2022/08/15 13:06:08;;;;;;;1.90;1.80;;;;;32.00;95440.00;;;;8344734;28;20251;-68
2022/08/15 13:10:32;;;;;;;2.10;1.92;;;;;31.70;95439.00;;;;8343540;28;20228;-68
2022/08/15 13:14:56;;;;;;;4.28;2.05;;;;;32.00;95424.00;;;;8339864;28;20223;-67
2022/08/15 13:19:01;;;;;;;3.53;2.33;;;;;32.10;95427.00;;;;8346633;28;20228;-66
2022/08/15 13:27:44;;;;;;;2.72;1.92;;;;;32.10;95405.00;;;;8343788;28;20225;-68
2022/08/15 13:31:48;;;;;;;3.80;1.80;;;;;32.00;95406.00;;;;8360464;28;20849;-68
2022/08/15 13:35:59;;;;;;;2.05;1.90;;;;;32.40;95402.00;;;;8351693;28;20259;-71
2022/08/15 13:40:07;;;;;;;1.73;1.38;;;;;33.00;95405.00;;;;8349617;28;20232;-68
2022/08/15 13:44:22;;;;;;;1.50;1.42;;;;;33.60;95399.00;;;;8341593;28;20477;-69
2022/08/15 13:48:37;;;;;;;3.30;1.70;;;;;34.10;95394.00;;;;8347912;28;20671;-69
2022/08/15 13:52:41;;;;;;;1.70;1.60;;;;;34.60;95390.00;;;;8344359;28;20220;-68
2022/08/15 13:56:54;;;;;;;1.60;1.50;;;;;34.20;95390.00;;;;8349727;28;20252;-68
2022/08/15 14:01:01;;;;;;;1.65;1.52;;;;;34.50;95390.00;;;;8355299;28;20298;-70
2022/08/15 14:05:08;;;;;;;1.67;1.58;;;;;35.30;95384.00;;;;8349060;28;20319;-68
2022/08/15 14:09:13;;;;;;;2.35;1.60;;;;;35.70;95374.00;;;;8345773;28;20614;-69
2022/08/15 14:13:38;;;;;;;1.83;1.73;;;;;35.30;95389.00;;;;8347680;28;20242;-68
2022/08/15 14:17:45;;;;;;;1.83;1.73;;;;;35.50;95381.00;;;;8344814;28;21167;-69
2022/08/15 14:22:05;;;;;;;1.75;1.65;;;;;35.90;95392.00;;;;8343601;28;20244;-69
2022/08/15 14:26:20;;;;;;;2.47;1.50;;;;;35.60;95377.00;;;;8341419;28;20224;-69
2022/08/15 14:30:45;;;;;;;2.05;1.70;;;;;34.40;95383.00;;;;8345432;28;20293;-68
2022/08/15 14:34:58;;;;;;;2.35;2.00;;;;;34.30;95390.00;;;;8341357;28;20221;-70
2022/08/15 14:39:02;;;;;;;3.72;2.03;;;;;34.40;95391.00;;;;8346293;28;20240;-68
2022/08/15 14:43:14;;;;;;;1.77;1.67;;;;;34.60;95384.00;;;;8329487;28;20231;-71
2022/08/15 14:47:21;;;;;;;2.08;1.88;;;;;35.00;95376.00;;;;8343238;28;20225;-73
2022/08/15 14:51:33;;;;;;;3.63;2.10;;;;;34.70;95375.00;;;;8346263;28;20874;-72
2022/08/15 14:55:58;;;;;;;2.38;1.90;;;;;33.70;95379.00;;;;8347178;28;20232;-71
2022/08/15 15:00:05;;;;;;;2.38;2.05;;;;;33.30;95377.00;;;;8349103;28;20307;-72
2022/08/15 15:04:14;;;;;;;2.10;2.00;;;;;34.00;95368.00;;;;8339898;28;20278;-75
2022/08/15 15:08:23;;;;;;;2.10;1.90;;;;;34.70;95375.00;;;;8342132;28;20278;-71
2022/08/15 15:12:26;;;;;;;2.08;1.98;;;;;34.40;95377.00;;;;8348562;28;20220;-70
2022/08/15 15:16:32;;;;;;;2.83;2.00;;;;;33.90;95377.00;;;;8348565;28;20224;-72
2022/08/15 15:20:46;;;;;;;4.07;2.13;;;;;33.20;95375.00;;;;8343973;28;20310;-68
2022/08/15 15:24:57;;;;;;;2.33;2.08;;;;;33.10;95372.00;;;;8365287;28;20321;-69
2022/08/15 15:29:00;;;;;;;3.58;2.35;;;;;33.50;95368.00;;;;8356937;28;20248;-68
2022/08/15 15:33:05;;;;;;;3.42;2.22;;;;;34.20;95376.00;;;;8363779;28;20266;-69
2022/08/15 15:37:10;;;;;;;3.97;2.15;;;;;34.90;95363.00;;;;8355787;28;20316;-68
2022/08/15 15:41:19;;;;;;;2.28;2.05;;;;;35.20;95361.00;;;;8356977;28;20626;-71
2022/08/15 15:45:26;;;;;;;2.05;1.90;;;;;35.30;95364.00;;;;8351881;28;20235;-69
2022/08/15 15:49:33;;;;;;;2.30;2.20;;;;;35.60;95359.00;;;;8353901;28;20259;-68
2022/08/15 15:53:44;;;;;;;2.35;2.20;;;;;35.70;95362.00;;;;8354866;28;20331;-71
2022/08/15 15:57:48;;;;;;;2.42;2.22;;;;;35.70;95369.00;;;;8351825;28;20231;-68
2022/08/15 16:02:09;;;;;;;3.90;2.30;;;;;35.40;95373.00;;;;8353902;28;20779;-68
2022/08/15 16:06:34;;;;;;;2.17;2.08;;;;;34.90;95374.00;;;;8351606;28;21714;-71
2022/08/15 16:11:07;;;;;;;4.30;2.00;;;;;34.30;95376.00;;;;8356269;28;20550;-69
2022/08/15 16:15:21;;;;;;;3.25;1.92;;;;;33.70;95375.00;;;;8355060;28;20225;-68
2022/08/15 16:19:48;;;;;;;2.10;2.00;;;;;33.10;95367.00;;;;8341583;28;20221;-68
2022/08/15 16:23:54;;;;;;;2.10;2.00;;;;;32.60;95374.00;;;;8350652;28;20239;-71
2022/08/15 16:28:02;;;;;;;2.08;1.88;;;;;32.30;95368.00;;;;8348826;28;20232;-71
2022/08/15 16:32:14;;;;;;;2.95;2.10;;;;;32.60;95370.00;;;;8351950;28;20331;-71
2022/08/15 16:36:39;;;;;;;5.50;1.90;;;;;33.70;95365.00;;;;8354566;28;20260;-71
2022/08/15 16:40:45;;;;;;;3.35;2.10;;;;;34.80;95364.00;;;;8335934;28;20232;-72
2022/08/15 16:45:18;;;;;;;2.20;2.10;;;;;35.30;95373.00;;;;8314313;28;20670;-71
2022/08/15 16:49:40;;;;;;;2.67;2.20;;;;;34.90;95374.00;;;;8308990;28;20220;-65
2022/08/15 16:54:01;;;;;;;3.80;2.03;;;;;35.10;95376.00;;;;8350951;28;20263;-69
2022/08/15 16:58:33;;;;;;;3.58;2.10;;;;;35.50;95366.00;;;;8365283;28;20220;-66
2022/08/15 17:03:00;;;;;;;3.03;2.17;;;;;35.70;95368.00;;;;8361692;28;20841;-66
2022/08/15 17:07:20;;;;;;;4.90;2.15;;;;;35.80;95381.00;;;;8355507;28;20220;-67
2022/08/15 17:11:43;;;;;;;2.35;2.20;;;;;35.70;95374.00;;;;8330409;28;20262;-67
2022/08/15 17:16:21;;;;;;;2.05;1.90;;;;;35.30;95380.00;;;;8320246;28;20229;-67
2022/08/15 17:20:49;;;;;;;4.75;2.47;;;;;34.90;95387.00;;;;8352908;28;20215;-65
2022/08/15 17:25:13;;;;;;;2.40;2.20;;;;;34.60;95399.00;;;;8352967;28;20228;-65
2022/08/15 17:29:22;;;;;;;2.53;2.28;;;;;34.30;95407.00;;;;8349982;28;20912;-65
2022/08/15 17:33:34;;;;;;;2.80;2.35;;;;;34.00;95410.00;;;;8333586;28;20304;-65
2022/08/15 17:37:48;;;;;;;2.10;2.00;;;;;33.40;95408.00;;;;8344218;28;20961;-66
2022/08/15 17:41:54;;;;;;;2.25;2.15;;;;;32.60;95402.00;;;;8344825;28;20228;-65
2022/08/15 17:46:01;;;;;;;2.47;2.25;;;;;32.00;95413.00;;;;8346621;28;20498;-67
2022/08/15 17:50:10;;;;;;;2.60;2.30;;;;;31.20;95427.00;;;;8354799;28;20228;-65
2022/08/15 17:54:39;;;;;;;5.07;2.33;;;;;30.60;95428.00;;;;8349148;28;20229;-66
2022/08/15 17:59:01;;;;;;;2.58;2.35;;;;;30.10;95431.00;;;;8353066;28;20285;-64
2022/08/15 18:03:07;;;;;;;2.20;2.10;;;;;29.80;95433.00;;;;8354455;28;20251;-64
2022/08/15 18:07:11;;;;;;;2.88;2.58;;;;;29.50;95434.00;;;;8353732;28;20239;-65
2022/08/15 18:11:18;;;;;;;4.47;2.53;;;;;29.10;95438.00;;;;8364271;28;20228;-66
2022/08/15 18:15:26;;;;;;;2.60;2.40;;;;;28.80;95442.00;;;;8330291;28;20221;-65
2022/08/15 18:19:34;;;;;;;7.82;2.70;;;;;28.30;95452.00;;;;8357396;28;20267;-67
2022/08/15 18:23:40;;;;;;;2.63;2.40;;;;;27.90;95454.00;;;;8348512;28;21193;-66
2022/08/15 18:27:59;;;;;;;4.60;2.80;;;;;27.40;95463.00;;;;8354277;28;20235;-66
2022/08/15 18:32:24;;;;;;;5.22;2.70;;;;;27.00;95465.00;;;;8360610;28;20311;-67
2022/08/15 18:36:38;;;;;;;4.97;2.70;;;;;26.60;95471.00;;;;8330900;28;20254;-66
2022/08/15 18:45:24;;;;;;;2.65;2.50;;;;;25.90;95500.00;;;;8356994;28;20224;-66
2022/08/15 18:49:39;;;;;;;5.30;2.50;;;;;25.70;95507.00;;;;8346968;28;21016;-66
2022/08/15 18:53:47;;;;;;;3.17;2.50;;;;;25.70;95519.00;;;;8354086;28;20228;-67
2022/08/15 18:58:03;;;;;;;2.65;2.42;;;;;25.70;95559.00;;;;8340893;28;20216;-66
2022/08/15 19:02:18;;;;;;;4.22;2.97;;;;;25.80;95587.00;;;;8349568;28;20225;-65
2022/08/15 19:06:28;;;;;;;4.97;2.40;;;;;25.70;95593.00;;;;8355485;28;20229;-66
2022/08/15 19:10:55;;;;;;;4.22;2.30;;;;;25.30;95605.00;;;;8357741;28;20317;-66
2022/08/15 19:15:03;;;;;;;3.95;2.67;;;;;25.00;95617.00;;;;8351190;28;20226;-65
2022/08/15 19:19:18;;;;;;;3.22;2.42;;;;;24.70;95629.00;;;;8349061;28;20219;-66
2022/08/15 19:23:22;;;;;;;2.50;2.30;;;;;24.50;95635.00;;;;8352746;28;20220;-64
2022/08/15 19:27:33;;;;;;;4.68;2.70;;;;;24.40;95632.00;;;;8357158;28;20266;-67
2022/08/15 19:31:50;;;;;;;5.15;2.25;;;;;24.20;95629.00;;;;8346071;28;20227;-64
2022/08/15 19:36:14;;;;;;;6.10;2.40;;;;;24.00;95625.00;;;;8355061;28;20220;-63
2022/08/15 19:40:47;;;;;;;6.40;2.20;;;;;23.90;95642.00;;;;8355964;28;20637;-64
2022/08/15 19:44:58;;;;;;;6.03;2.00;;;;;23.80;95647.00;;;;8349310;28;20225;-66
2022/08/15 19:51:19;;;;;;;2.38;1.95;;;;;23.80;95653.00;;;;8351396;28;20216;-64
2022/08/15 19:53:50;;;;;;;2.55;1.60;;;;;23.70;95649.00;;;;8347530;28;20251;-64
2022/08/15 19:58:28;;;;;;;1.70;1.60;;;;;23.60;95665.00;;;;8343746;28;20216;-65
2022/08/15 20:02:41;;;;;;;1.55;1.30;;;;;23.50;95661.00;;;;8348507;28;20236;-64
2022/08/15 20:06:55;;;;;;;1.50;1.30;;;;;23.40;95666.00;;;;8342853;28;20236;-64
2022/08/15 20:11:07;;;;;;;1.85;1.60;;;;;23.30;95658.00;;;;8346882;28;20670;-65
2022/08/15 20:15:20;;;;;;;1.65;1.55;;;;;22.90;95678.00;;;;8349597;28;21432;-65
2022/08/15 20:19:43;;;;;;;2.88;1.73;;;;;21.60;95687.00;;;;8351513;28;20296;-72
2022/08/15 20:23:57;;;;;;;1.90;1.70;;;;;20.80;95696.00;;;;8346797;28;20227;-77
2022/08/15 20:28:11;;;;;;;1.90;1.65;;;;;20.30;95703.00;;;;8349039;28;20225;-75
2022/08/15 20:32:37;;;;;;;2.05;1.88;;;;;20.00;95702.00;;;;8353727;28;20216;-74
2022/08/15 20:36:49;;;;;;;3.50;2.10;;;;;19.90;95705.00;;;;8350094;28;20366;-72
2022/08/15 20:40:59;;;;;;;5.25;1.95;;;;;19.80;95696.00;;;;8343507;28;20252;-71
2022/08/15 20:45:11;;;;;;;2.25;2.05;;;;;19.70;95692.00;;;;8341712;28;20252;-71
2022/08/15 20:49:21;;;;;;;3.15;2.15;;;;;19.80;95686.00;;;;8338193;28;20971;-70
2022/08/15 20:53:25;;;;;;;5.13;1.90;;;;;19.90;95700.00;;;;8340452;28;20232;-69
2022/08/15 20:57:39;;;;;;;3.70;2.15;;;;;20.10;95700.00;;;;8344939;28;20231;-68
2022/08/15 21:01:44;;;;;;;2.38;2.00;;;;;20.20;95710.00;;;;8344004;28;20787;-67
2022/08/15 21:05:56;;;;;;;3.08;2.00;;;;;20.30;95720.00;;;;8344420;28;20224;-67
2022/08/15 21:10:25;;;;;;;3.00;2.03;;;;;20.30;95724.00;;;;8343247;28;20297;-68
2022/08/15 21:14:45;;;;;;;2.58;2.20;;;;;20.30;95726.00;;;;8339575;28;20217;-68
2022/08/15 21:19:17;;;;;;;4.03;2.30;;;;;20.10;95738.00;;;;8344875;28;20228;-66
2022/08/15 21:23:24;;;;;;;4.32;2.58;;;;;20.00;95740.00;;;;8343400;28;20308;-67
2022/08/15 21:27:28;;;;;;;2.90;2.60;;;;;19.90;95733.00;;;;8346607;28;21098;-68